createdAt,value
2023-01-26T00:01:16.507Z,18.35
2023-01-26T00:04:05.239Z,18.23
2023-01-26T00:06:47.489Z,19.73
2023-01-26T00:09:37.206Z,18.48
2023-01-26T00:12:19.435Z,21.38
2023-01-26T00:15:08.202Z,18.60
2023-01-26T00:17:52.552Z,19.45
2023-01-26T00:20:41.210Z,19.05
2023-01-26T00:23:23.398Z,20.40
2023-01-26T00:26:14.285Z,19.33
2023-01-26T00:29:03.221Z,19.33
2023-01-26T00:31:45.259Z,21.20
2023-01-26T00:34:34.236Z,18.60
2023-01-26T00:37:16.196Z,22.27
2023-01-26T00:40:06.307Z,21.77
2023-01-26T00:42:49.798Z,19.55
2023-01-26T00:45:40.292Z,19.95
2023-01-26T00:48:24.557Z,22.83
2023-01-26T00:51:13.246Z,22.70
2023-01-26T00:53:55.134Z,23.20
2023-01-26T00:56:44.230Z,23.40
2023-01-26T00:59:34.210Z,22.20
2023-01-26T01:02:16.497Z,22.70
2023-01-26T01:05:05.228Z,19.95
2023-01-26T01:07:48.465Z,21.25
2023-01-26T01:10:37.321Z,24.02
2023-01-26T01:13:19.448Z,24.73
2023-01-26T01:16:12.216Z,23.63
2023-01-26T01:18:54.525Z,22.38
2023-01-26T01:21:43.234Z,22.95
2023-01-26T01:24:32.234Z,21.27
2023-01-26T01:27:21.434Z,22.50
2023-01-26T01:30:03.249Z,22.48
2023-01-26T01:32:49.723Z,26.02
2023-01-26T01:35:38.232Z,25.80
2023-01-26T01:38:20.162Z,22.45
2023-01-26T01:41:10.212Z,24.13
2023-01-26T01:43:53.381Z,22.15
2023-01-26T01:46:47.336Z,21.50
2023-01-26T01:49:40.251Z,21.60
2023-01-26T01:52:26.159Z,20.33
2023-01-26T01:55:20.287Z,20.63
2023-01-26T01:58:05.444Z,19.27
2023-01-26T02:00:54.270Z,20.75
2023-01-26T02:03:37.482Z,20.17
2023-01-26T02:06:32.220Z,21.35
2023-01-26T02:09:35.538Z,20.48
2023-01-26T02:12:26.304Z,20.42
2023-01-26T02:18:00.250Z,19.60
2023-01-26T02:20:58.228Z,20.48
2023-01-26T02:23:52.035Z,21.85
2023-01-26T02:26:45.322Z,19.92
2023-01-26T02:29:27.466Z,18.90
2023-01-26T02:32:16.252Z,20.90
2023-01-26T02:34:58.848Z,21.95
2023-01-26T02:37:47.238Z,20.75
2023-01-26T02:40:38.909Z,21.05
2023-01-26T02:46:09.132Z,21.42
2023-01-26T02:49:15.252Z,20.60
2023-01-26T02:52:10.283Z,20.35
2023-01-26T02:55:12.316Z,20.38
2023-01-26T02:58:01.325Z,18.60
2023-01-26T03:00:44.672Z,20.13
2023-01-26T03:03:48.252Z,20.70
2023-01-26T03:06:33.275Z,18.13
2023-01-26T03:09:22.325Z,20.52
2023-01-26T03:12:05.404Z,19.52
2023-01-26T03:15:14.328Z,17.95
2023-01-26T03:21:48.343Z,18.23
2023-01-26T03:24:53.256Z,17.73
2023-01-26T03:27:45.521Z,17.85
2023-01-26T03:30:27.295Z,19.50
2023-01-26T03:33:10.545Z,19.00
2023-01-26T03:36:00.360Z,18.85
2023-01-26T03:38:42.253Z,19.58
2023-01-26T03:41:48.357Z,18.08
2023-01-26T03:44:54.246Z,21.40
2023-01-26T03:47:56.026Z,17.75
2023-01-26T03:51:03.321Z,18.10
2023-01-26T03:54:02.978Z,16.10
2023-01-26T03:56:51.332Z,15.88
2023-01-26T03:59:39.531Z,15.55
2023-01-26T04:02:50.340Z,15.95
2023-01-26T04:05:56.457Z,16.75
2023-01-26T04:08:59.658Z,16.42
2023-01-26T04:11:48.358Z,14.95
2023-01-26T04:14:50.280Z,17.23
2023-01-26T04:17:58.306Z,14.45
2023-01-26T04:20:58.889Z,16.77
2023-01-26T04:23:48.273Z,16.88
2023-01-26T04:26:46.279Z,15.00
2023-01-26T04:29:41.244Z,15.05
2023-01-26T04:32:30.379Z,15.35
2023-01-26T04:35:12.442Z,15.07
2023-01-26T04:38:03.250Z,16.92
2023-01-26T04:40:54.430Z,16.40
2023-01-26T04:43:46.258Z,14.93
2023-01-26T04:46:28.306Z,13.45
2023-01-26T04:49:18.274Z,14.48
2023-01-26T04:52:01.208Z,14.98
2023-01-26T04:54:50.285Z,14.73
2023-01-26T04:57:33.379Z,14.70
2023-01-26T05:00:25.310Z,16.23
2023-01-26T05:03:15.373Z,15.38
2023-01-26T05:05:58.564Z,12.98
2023-01-26T05:08:47.314Z,13.95
2023-01-26T05:11:29.517Z,13.85
2023-01-26T05:14:40.271Z,11.55
2023-01-26T05:17:47.507Z,14.23
2023-01-26T05:20:55.346Z,13.85
2023-01-26T05:23:51.327Z,13.20
2023-01-26T05:27:10.494Z,13.55
2023-01-26T05:30:01.276Z,14.75
2023-01-26T05:32:46.626Z,13.75
2023-01-26T05:35:36.277Z,13.77
2023-01-26T05:38:19.667Z,14.30
2023-01-26T05:41:08.284Z,14.25
2023-01-26T05:44:05.358Z,15.45
2023-01-26T05:46:58.391Z,19.40
2023-01-26T05:49:49.362Z,16.65
2023-01-26T05:52:35.504Z,13.88
2023-01-26T05:55:25.372Z,13.75
2023-01-26T05:58:07.471Z,13.05
2023-01-26T06:00:55.311Z,11.07
2023-01-26T06:03:39.556Z,11.82
2023-01-26T06:06:29.364Z,13.15
2023-01-26T06:09:28.481Z,12.95
2023-01-26T06:12:38.295Z,12.80
2023-01-26T06:15:35.367Z,11.77
2023-01-26T06:18:18.323Z,10.68
2023-01-26T06:21:13.285Z,11.07
2023-01-26T06:23:56.995Z,11.40
2023-01-26T06:26:45.280Z,12.75
2023-01-26T06:29:27.300Z,10.02
2023-01-26T06:32:16.327Z,11.02
2023-01-26T06:35:03.273Z,10.70
2023-01-26T06:37:53.339Z,10.88
2023-01-26T06:40:36.740Z,11.50
2023-01-26T06:43:25.405Z,11.00
2023-01-26T06:46:08.443Z,10.70
2023-01-26T06:48:58.413Z,9.88
2023-01-26T06:51:55.406Z,12.27
2023-01-26T06:54:56.532Z,10.32
2023-01-26T06:58:03.302Z,11.32
2023-01-26T07:01:05.496Z,11.00
2023-01-26T07:03:55.347Z,10.88
2023-01-26T07:06:37.552Z,11.52
2023-01-26T07:09:25.324Z,10.60
2023-01-26T07:12:07.583Z,10.77
2023-01-26T07:14:58.377Z,11.30
2023-01-26T07:20:28.341Z,10.38
2023-01-26T07:23:10.672Z,10.45
2023-01-26T07:25:58.321Z,9.27
2023-01-26T07:28:47.317Z,10.48
2023-01-26T07:31:30.782Z,11.10
2023-01-26T07:34:19.330Z,10.95
2023-01-26T07:37:01.194Z,11.18
2023-01-26T07:39:50.316Z,9.55
2023-01-26T07:42:32.197Z,9.52
2023-01-26T07:45:33.402Z,11.02
2023-01-26T07:48:16.801Z,9.80
2023-01-26T07:51:05.371Z,10.30
2023-01-26T07:53:50.016Z,10.77
2023-01-26T07:56:38.317Z,10.18
2023-01-26T07:59:27.314Z,9.98
2023-01-26T08:02:09.532Z,13.68
2023-01-26T08:04:59.342Z,9.38
2023-01-26T08:07:41.629Z,10.70
2023-01-26T08:10:29.319Z,11.73
2023-01-26T08:13:11.608Z,8.55
2023-01-26T08:16:00.306Z,9.52
2023-01-26T08:18:42.601Z,9.75
2023-01-26T08:21:32.339Z,8.82
2023-01-26T08:24:21.450Z,9.23
2023-01-26T08:27:09.579Z,8.57
2023-01-26T08:29:51.323Z,14.55
2023-01-26T08:32:33.278Z,9.30
2023-01-26T08:35:25.227Z,9.07
2023-01-26T08:38:08.744Z,9.70
2023-01-26T08:40:57.459Z,9.25
2023-01-26T08:43:39.616Z,9.23
2023-01-26T08:46:28.413Z,8.98
2023-01-26T08:49:10.926Z,10.50
2023-01-26T08:51:59.342Z,8.95
2023-01-26T08:54:49.353Z,8.65
2023-01-26T08:57:31.587Z,9.15
2023-01-26T09:00:21.362Z,9.50
2023-01-26T09:03:06.605Z,9.00
2023-01-26T09:05:54.352Z,9.93
2023-01-26T09:08:36.581Z,8.40
2023-01-26T09:11:26.327Z,8.93
2023-01-26T09:14:08.597Z,8.93
2023-01-26T09:16:57.575Z,10.55
2023-01-26T09:19:46.353Z,7.93
2023-01-26T09:22:28.337Z,7.85
2023-01-26T09:25:17.362Z,7.97
2023-01-26T09:28:07.597Z,7.57
2023-01-26T09:30:49.434Z,8.63
2023-01-26T09:33:31.311Z,8.55
2023-01-26T09:36:22.336Z,7.97
2023-01-26T09:42:12.335Z,7.95
2023-01-26T09:45:14.694Z,7.68
2023-01-26T09:48:14.703Z,7.15
2023-01-26T09:51:07.379Z,8.07
2023-01-26T09:53:55.851Z,8.88
2023-01-26T09:56:44.358Z,7.45
2023-01-26T09:59:36.802Z,7.50
2023-01-26T10:02:38.418Z,7.93
2023-01-26T10:05:28.547Z,7.75
2023-01-26T10:08:24.535Z,8.68
2023-01-26T10:11:17.392Z,8.00
2023-01-26T10:14:04.481Z,8.15
2023-01-26T10:16:53.373Z,6.75
2023-01-26T10:19:50.378Z,8.40
2023-01-26T10:25:34.479Z,8.45
2023-01-26T10:28:28.446Z,8.45
2023-01-26T10:31:16.609Z,10.30
2023-01-26T10:34:08.356Z,10.18
2023-01-26T10:36:51.993Z,9.43
2023-01-26T10:39:40.402Z,10.77
2023-01-26T10:42:29.045Z,10.10
2023-01-26T10:45:20.435Z,10.27
2023-01-26T10:48:14.396Z,12.23
2023-01-26T10:50:56.681Z,10.10
2023-01-26T10:53:46.388Z,10.15
2023-01-26T10:56:28.557Z,9.23
2023-01-26T10:59:17.470Z,9.00
2023-01-26T11:02:00.669Z,9.80
2023-01-26T11:04:49.487Z,9.57
2023-01-26T11:07:35.553Z,9.80
2023-01-26T11:10:32.423Z,10.38
2023-01-26T11:13:20.666Z,10.93
2023-01-26T11:16:12.427Z,10.98
2023-01-26T11:19:03.153Z,10.98
2023-01-26T11:21:56.456Z,10.73
2023-01-26T11:24:42.736Z,11.10
2023-01-26T11:27:48.365Z,11.63
2023-01-26T11:30:54.535Z,10.38
2023-01-26T11:33:44.892Z,12.48
2023-01-26T11:36:42.391Z,10.95
2023-01-26T11:39:31.904Z,11.05
2023-01-26T11:42:31.402Z,12.57
2023-01-26T11:45:28.337Z,10.70
2023-01-26T11:48:29.392Z,11.20
2023-01-26T11:51:21.710Z,10.05
2023-01-26T11:54:24.383Z,10.05
2023-01-26T11:57:18.137Z,10.65
2023-01-26T12:00:20.696Z,9.98
2023-01-26T12:03:21.249Z,10.70
2023-01-26T12:06:15.380Z,11.40
2023-01-26T12:09:09.408Z,10.68
2023-01-26T12:11:58.738Z,11.65
2023-01-26T12:14:53.413Z,12.43
2023-01-26T12:17:41.591Z,11.77
2023-01-26T12:20:41.420Z,10.65
2023-01-26T12:23:35.636Z,10.57
2023-01-26T12:26:26.415Z,10.38
2023-01-26T12:29:17.344Z,11.23
2023-01-26T12:32:10.482Z,9.80
2023-01-26T12:34:52.677Z,11.07
2023-01-26T12:37:54.448Z,12.50
2023-01-26T12:40:47.661Z,11.75
2023-01-26T12:43:49.423Z,10.82
2023-01-26T12:46:39.474Z,11.52
2023-01-26T12:49:25.845Z,11.90
2023-01-26T12:52:20.397Z,11.65
2023-01-26T12:55:12.452Z,11.07
2023-01-26T12:58:06.494Z,10.93
2023-01-26T13:01:05.055Z,11.32
2023-01-26T13:03:57.402Z,10.25
2023-01-26T13:06:39.500Z,9.95
2023-01-26T13:09:37.418Z,9.07
2023-01-26T13:12:55.441Z,8.43
2023-01-26T13:15:40.694Z,7.80
2023-01-26T13:18:56.414Z,8.55
2023-01-26T13:21:50.698Z,7.47
2023-01-26T13:24:53.495Z,8.43
2023-01-26T13:27:55.429Z,7.47
2023-01-26T13:30:52.565Z,6.53
2023-01-26T13:33:34.727Z,4.95
2023-01-26T13:36:25.398Z,4.93
2023-01-26T13:39:11.602Z,4.28
2023-01-26T13:42:01.417Z,4.03
2023-01-26T13:44:47.723Z,4.63
2023-01-26T13:47:43.508Z,4.43
2023-01-26T13:50:45.473Z,3.40
2023-01-26T13:53:36.313Z,3.47
2023-01-26T13:56:38.406Z,4.22
2023-01-26T13:59:23.019Z,3.47
2023-01-26T14:02:12.483Z,2.67
2023-01-26T14:04:58.206Z,2.65
2023-01-26T14:07:50.493Z,2.97
2023-01-26T14:10:32.586Z,2.25
2023-01-26T14:13:21.455Z,2.58
2023-01-26T14:16:06.072Z,2.08
2023-01-26T14:18:54.454Z,2.40
2023-01-26T14:21:56.439Z,1.95
2023-01-26T14:25:03.498Z,2.30
2023-01-26T14:27:58.461Z,2.10
2023-01-26T14:30:40.959Z,2.53
2023-01-26T14:33:30.427Z,2.10
2023-01-26T14:36:16.539Z,2.22
2023-01-26T14:39:08.504Z,2.50
2023-01-26T14:41:51.007Z,2.70
2023-01-26T14:44:39.458Z,3.15
2023-01-26T14:47:31.530Z,2.30
2023-01-26T14:50:20.656Z,1.88
2023-01-26T14:53:11.430Z,2.17
2023-01-26T14:55:55.641Z,2.33
2023-01-26T14:58:44.437Z,2.15
2023-01-26T15:01:31.690Z,2.47
2023-01-26T15:04:30.465Z,2.58
2023-01-26T15:07:39.020Z,2.40
2023-01-26T15:10:38.516Z,2.28
2023-01-26T15:13:37.442Z,2.28
2023-01-26T15:16:21.665Z,2.08
2023-01-26T15:19:14.445Z,2.63
2023-01-26T15:21:56.518Z,2.42
2023-01-26T15:24:45.448Z,2.22
2023-01-26T15:27:45.478Z,2.55
2023-01-26T15:30:38.532Z,2.67
2023-01-26T15:33:55.877Z,2.17
2023-01-26T15:36:55.471Z,2.38
2023-01-26T15:39:44.491Z,1.92
2023-01-26T15:42:28.933Z,2.22
2023-01-26T15:45:17.497Z,2.05
2023-01-26T15:48:01.758Z,1.50
2023-01-26T15:50:50.452Z,2.00
2023-01-26T15:53:32.399Z,2.63
2023-01-26T15:56:25.487Z,2.38
2023-01-26T15:59:07.623Z,1.77
2023-01-26T16:01:56.572Z,2.10
2023-01-26T16:04:39.784Z,2.67
2023-01-26T16:07:31.478Z,2.35
2023-01-26T16:10:20.451Z,2.53
2023-01-26T16:13:02.798Z,3.38
2023-01-26T16:15:52.529Z,3.92
2023-01-26T16:18:34.689Z,2.13
2023-01-26T16:21:27.483Z,2.65
2023-01-26T16:24:09.783Z,1.90
2023-01-26T16:26:57.554Z,2.13
2023-01-26T16:29:39.655Z,2.35
2023-01-26T16:32:35.459Z,2.13
2023-01-26T16:35:19.732Z,1.50
2023-01-26T16:38:10.491Z,1.25
2023-01-26T16:41:02.473Z,1.52
2023-01-26T16:43:44.511Z,1.63
2023-01-26T16:46:33.480Z,1.67
2023-01-26T16:49:16.143Z,2.28
2023-01-26T16:52:04.456Z,1.98
2023-01-26T16:54:50.992Z,2.15
2023-01-26T16:57:39.466Z,2.55
2023-01-26T17:00:22.177Z,2.63
2023-01-26T17:03:10.512Z,1.85
2023-01-26T17:06:05.501Z,1.17
2023-01-26T17:08:47.643Z,1.98
2023-01-26T17:11:39.492Z,1.77
2023-01-26T17:14:21.569Z,1.58
2023-01-26T17:17:10.471Z,1.80
2023-01-26T17:19:52.442Z,2.28
2023-01-26T17:22:41.508Z,1.63
2023-01-26T17:25:23.453Z,1.42
2023-01-26T17:28:13.492Z,1.67
2023-01-26T17:30:55.679Z,1.90
2023-01-26T17:33:44.573Z,1.95
2023-01-26T17:36:34.523Z,1.98
2023-01-26T17:39:18.865Z,2.00
2023-01-26T17:42:07.587Z,2.70
2023-01-26T17:44:51.128Z,3.35
2023-01-26T17:47:40.494Z,2.53
2023-01-26T17:50:22.845Z,2.20
2023-01-26T17:53:11.517Z,1.95
2023-01-26T17:55:53.718Z,2.05
2023-01-26T17:58:42.490Z,1.85
2023-01-26T18:01:27.881Z,1.95
2023-01-26T18:04:16.559Z,2.42
2023-01-26T18:07:05.507Z,1.50
2023-01-26T18:09:47.497Z,1.73
2023-01-26T18:12:36.490Z,1.48
2023-01-26T18:15:18.539Z,2.00
2023-01-26T18:18:08.498Z,1.40
2023-01-26T18:20:50.670Z,1.40
2023-01-26T18:23:39.551Z,1.80
2023-01-26T18:26:24.267Z,1.65
2023-01-26T18:29:12.624Z,1.77
2023-01-26T18:32:07.565Z,1.60
2023-01-26T18:34:50.975Z,2.45
2023-01-26T18:37:40.760Z,1.70
2023-01-26T18:40:23.437Z,1.90
2023-01-26T18:43:12.651Z,2.22
2023-01-26T18:45:54.574Z,2.00
2023-01-26T18:48:43.576Z,1.90
2023-01-26T18:51:26.909Z,1.70
2023-01-26T18:54:16.591Z,3.83
2023-01-26T18:56:58.598Z,1.63
2023-01-26T19:00:01.639Z,2.20
2023-01-26T19:02:49.502Z,1.92
2023-01-26T19:05:31.842Z,1.73
2023-01-26T19:08:21.580Z,1.60
2023-01-26T19:11:03.765Z,2.33
2023-01-26T19:13:55.513Z,2.50
2023-01-26T19:16:38.079Z,2.50
2023-01-26T19:19:25.559Z,1.33
2023-01-26T19:22:07.761Z,1.85
2023-01-26T19:24:57.637Z,1.73
2023-01-26T19:27:52.529Z,1.55
2023-01-26T19:30:34.766Z,1.48
2023-01-26T19:33:34.602Z,1.27
2023-01-26T19:36:16.907Z,1.55
2023-01-26T19:39:05.519Z,0.50
2023-01-26T19:41:50.175Z,1.95
2023-01-26T19:44:38.525Z,1.25
2023-01-26T19:47:20.597Z,1.30
2023-01-26T19:50:09.647Z,1.55
2023-01-26T19:53:06.596Z,1.58
2023-01-26T19:55:49.790Z,1.25
2023-01-26T19:58:40.555Z,1.77
2023-01-26T20:01:23.222Z,1.50
2023-01-26T20:04:13.562Z,1.15
2023-01-26T20:06:55.574Z,1.90
2023-01-26T20:09:46.572Z,1.70
2023-01-26T20:12:28.589Z,1.95
2023-01-26T20:15:19.537Z,1.35
2023-01-26T20:18:01.701Z,1.45
2023-01-26T20:20:43.518Z,1.45
2023-01-26T20:23:32.621Z,1.63
2023-01-26T20:26:15.276Z,2.40
2023-01-26T20:29:03.565Z,1.65
2023-01-26T20:31:48.163Z,1.35
2023-01-26T20:34:36.590Z,2.35
2023-01-26T20:37:18.594Z,1.58
2023-01-26T20:40:07.556Z,1.45
2023-01-26T20:42:51.595Z,1.45
2023-01-26T20:45:40.837Z,1.60
2023-01-26T20:48:37.566Z,1.20
2023-01-26T20:51:23.135Z,1.42
2023-01-26T20:54:14.594Z,1.48
2023-01-26T20:57:00.647Z,1.58
2023-01-26T20:59:49.636Z,1.25
2023-01-26T21:02:31.493Z,1.45
2023-01-26T21:05:22.539Z,1.80
2023-01-26T21:08:04.729Z,1.40
2023-01-26T21:10:53.569Z,1.48
2023-01-26T21:13:48.553Z,1.30
2023-01-26T21:16:31.836Z,1.55
2023-01-26T21:19:21.772Z,1.40
2023-01-26T21:22:05.004Z,1.25
2023-01-26T21:24:53.647Z,1.77
2023-01-26T21:27:48.653Z,1.42
2023-01-26T21:30:36.667Z,1.15
2023-01-26T21:33:19.768Z,1.00
2023-01-26T21:36:09.569Z,5.22
2023-01-26T21:39:01.656Z,2.33
2023-01-26T21:41:59.228Z,1.77
2023-01-26T21:45:01.654Z,1.88
2023-01-26T21:50:51.640Z,1.42
2023-01-26T21:53:32.596Z,1.25
2023-01-26T21:56:23.559Z,1.55
2023-01-26T21:59:08.462Z,1.75
2023-01-26T22:01:58.567Z,0.98
2023-01-26T22:04:53.686Z,1.88
2023-01-26T22:07:35.711Z,1.30
2023-01-26T22:10:25.673Z,1.27
2023-01-26T22:13:09.047Z,1.05
2023-01-26T22:15:57.600Z,1.40
2023-01-26T22:18:39.844Z,1.30
2023-01-26T22:21:28.580Z,1.52
2023-01-26T22:24:17.614Z,1.30
2023-01-26T22:27:06.601Z,1.50
2023-01-26T22:30:03.550Z,1.33
2023-01-26T22:32:45.739Z,2.45
2023-01-26T22:35:34.677Z,2.22
2023-01-26T22:38:16.774Z,1.70
2023-01-26T22:41:05.691Z,1.75
2023-01-26T22:43:49.141Z,1.30
2023-01-26T22:46:40.582Z,1.70
2023-01-26T22:49:22.506Z,1.58
2023-01-26T22:52:13.681Z,1.10
2023-01-26T22:54:55.463Z,1.63
2023-01-26T22:57:37.605Z,1.10
2023-01-26T23:00:27.588Z,1.55
2023-01-26T23:03:10.925Z,1.48
2023-01-26T23:05:59.605Z,1.00
2023-01-26T23:08:42.083Z,1.67
2023-01-26T23:11:32.605Z,1.63
2023-01-26T23:14:14.527Z,1.75
2023-01-26T23:17:03.585Z,1.88
2023-01-26T23:19:47.086Z,1.33
2023-01-26T23:22:35.572Z,2.28
2023-01-26T23:25:41.645Z,1.00
2023-01-26T23:28:31.789Z,2.30
2023-01-26T23:31:14.846Z,1.48
2023-01-26T23:33:56.579Z,1.10
2023-01-26T23:36:46.642Z,1.50
2023-01-26T23:39:28.528Z,1.15
2023-01-26T23:42:17.643Z,1.85
2023-01-26T23:44:59.649Z,1.58
2023-01-26T23:47:48.584Z,1.38
2023-01-26T23:50:30.909Z,1.55
2023-01-26T23:53:21.592Z,1.40
2023-01-26T23:56:14.563Z,1.63
2023-01-26T23:58:56.872Z,1.77
